createdAt,value
2024-02-16T00:03:01.242Z,36.45
2024-02-16T00:10:21.390Z,33.42
2024-02-16T00:17:41.255Z,32.60
2024-02-16T00:24:59.791Z,33.55
2024-02-16T00:32:18.155Z,38.67
2024-02-16T00:39:37.904Z,40.63
2024-02-16T00:46:56.214Z,40.72
2024-02-16T00:54:14.909Z,35.60
2024-02-16T01:01:34.731Z,40.10
2024-02-16T01:08:52.999Z,44.45
2024-02-16T01:16:12.325Z,40.97
2024-02-16T01:23:32.319Z,48.47
2024-02-16T01:30:51.124Z,47.35
2024-02-16T01:38:09.968Z,45.15
2024-02-16T01:45:29.889Z,49.95
2024-02-16T01:52:49.543Z,43.85
2024-02-16T02:00:09.546Z,43.15
2024-02-16T02:07:30.069Z,42.90
2024-02-16T02:14:49.070Z,41.58
2024-02-16T02:22:15.635Z,44.25
2024-02-16T02:29:34.864Z,38.10
2024-02-16T02:36:54.795Z,40.38
2024-02-16T02:44:17.708Z,44.42
2024-02-16T02:51:36.185Z,43.92
2024-02-16T02:58:54.564Z,45.08
2024-02-16T03:06:14.787Z,41.95
2024-02-16T03:13:34.562Z,41.58
2024-02-16T03:20:53.023Z,41.58
2024-02-16T03:28:14.664Z,45.38
2024-02-16T03:35:33.102Z,44.92
2024-02-16T03:42:51.650Z,48.50
2024-02-16T03:50:12.181Z,44.65
2024-02-16T03:57:30.708Z,48.22
2024-02-16T04:04:49.097Z,43.85
2024-02-16T04:12:10.819Z,48.03
2024-02-16T04:19:29.481Z,52.38
2024-02-16T04:26:47.852Z,47.30
2024-02-16T04:34:07.800Z,48.40
2024-02-16T04:41:26.102Z,46.33
2024-02-16T04:48:44.830Z,51.65
2024-02-16T04:56:06.238Z,51.50
2024-02-16T05:03:24.691Z,57.25
2024-02-16T05:10:43.095Z,61.88
2024-02-16T05:18:03.594Z,60.35
2024-02-16T05:25:22.647Z,56.70
2024-02-16T05:32:43.336Z,55.80
2024-02-16T05:40:20.081Z,53.65
2024-02-16T05:47:39.702Z,51.28
2024-02-16T05:54:58.212Z,52.85
2024-02-16T06:02:18.973Z,50.80
2024-02-16T06:09:38.854Z,47.72
2024-02-16T06:16:57.819Z,54.40
2024-02-16T06:24:20.386Z,52.53
2024-02-16T06:31:38.805Z,48.97
2024-02-16T06:38:58.221Z,47.45
2024-02-16T06:46:17.885Z,43.17
2024-02-16T06:53:36.103Z,46.28
2024-02-16T07:00:54.607Z,48.55
2024-02-16T07:08:14.351Z,41.00
2024-02-16T07:15:33.696Z,42.10
2024-02-16T07:22:53.063Z,36.33
2024-02-16T07:30:18.400Z,32.65
2024-02-16T07:37:43.468Z,32.65
2024-02-16T07:45:02.087Z,33.97
2024-02-16T07:52:21.974Z,25.85
2024-02-16T07:59:41.864Z,26.98
2024-02-16T08:07:02.678Z,25.30
2024-02-16T08:14:22.623Z,19.00
2024-02-16T08:21:40.926Z,23.17
2024-02-16T08:28:59.663Z,19.80
2024-02-16T08:36:20.338Z,19.20
2024-02-16T08:43:38.951Z,20.25
2024-02-16T08:50:57.308Z,19.83
2024-02-16T08:58:17.442Z,22.25
2024-02-16T09:05:36.188Z,20.35
2024-02-16T09:12:54.632Z,15.70
2024-02-16T09:20:15.545Z,18.23
2024-02-16T09:27:34.015Z,16.10
2024-02-16T09:34:52.947Z,19.73
2024-02-16T09:42:16.012Z,10.73
2024-02-16T09:49:39.951Z,10.90
2024-02-16T09:56:59.602Z,14.32
2024-02-16T10:04:19.406Z,16.70
2024-02-16T10:11:40.194Z,11.88
2024-02-16T10:19:00.234Z,11.77
2024-02-16T10:26:20.238Z,18.20
2024-02-16T10:33:39.830Z,9.63
2024-02-16T10:41:01.127Z,9.88
2024-02-16T10:48:21.574Z,10.32
2024-02-16T10:55:40.053Z,11.90
2024-02-16T11:03:00.795Z,12.25
2024-02-16T11:10:20.706Z,12.80
2024-02-16T11:17:39.454Z,10.73
2024-02-16T11:25:00.591Z,10.45
2024-02-16T11:32:22.661Z,13.80
2024-02-16T11:39:42.682Z,10.68
2024-02-16T11:47:01.300Z,13.50
2024-02-16T11:54:20.990Z,10.50
2024-02-16T12:01:39.288Z,10.02
2024-02-16T12:08:57.820Z,11.13
2024-02-16T12:16:17.433Z,10.73
2024-02-16T12:23:36.501Z,11.85
2024-02-16T12:30:54.873Z,10.93
2024-02-16T12:38:15.020Z,8.63
2024-02-16T12:45:34.232Z,6.85
2024-02-16T12:52:59.423Z,5.82
2024-02-16T13:00:23.893Z,4.28
2024-02-16T13:07:43.284Z,5.40
2024-02-16T13:15:14.505Z,4.50
2024-02-16T13:22:42.972Z,4.25
2024-02-16T13:30:01.560Z,5.43
2024-02-16T13:37:20.011Z,5.80
2024-02-16T13:44:39.857Z,4.10
2024-02-16T13:52:00.006Z,3.60
2024-02-16T13:59:19.924Z,4.82
2024-02-16T14:06:40.733Z,5.50
2024-02-16T14:13:59.216Z,6.82
2024-02-16T14:21:17.497Z,7.50
2024-02-16T14:28:37.110Z,6.88
2024-02-16T14:35:55.407Z,6.32
2024-02-16T14:43:13.770Z,12.50
2024-02-16T14:50:36.123Z,6.57
2024-02-16T14:57:55.420Z,6.50
2024-02-16T15:05:14.111Z,8.43
2024-02-16T15:12:34.019Z,8.15
2024-02-16T15:19:52.808Z,5.50
2024-02-16T15:27:11.924Z,6.65
2024-02-16T15:34:32.292Z,6.00
2024-02-16T15:41:50.801Z,8.85
2024-02-16T15:49:09.576Z,7.45
2024-02-16T15:56:29.278Z,10.55
2024-02-16T16:03:47.835Z,5.75
2024-02-16T16:11:06.710Z,6.50
2024-02-16T16:18:26.402Z,12.07
2024-02-16T16:25:44.899Z,9.50
2024-02-16T16:33:03.908Z,10.40
2024-02-16T16:40:23.952Z,8.70
2024-02-16T16:47:42.665Z,10.73
2024-02-16T16:55:01.072Z,12.57
2024-02-16T17:02:21.733Z,16.48
2024-02-16T17:09:40.089Z,13.95
2024-02-16T17:16:58.559Z,14.07
2024-02-16T17:24:18.338Z,13.95
2024-02-16T17:31:36.744Z,15.20
2024-02-16T17:38:55.347Z,14.70
2024-02-16T17:46:15.175Z,17.88
2024-02-16T17:53:33.546Z,14.65
2024-02-16T18:00:52.184Z,14.05
2024-02-16T18:08:12.166Z,14.38
2024-02-16T18:15:30.657Z,12.80
2024-02-16T18:22:50.326Z,18.17
2024-02-16T18:30:11.782Z,14.35
2024-02-16T18:37:30.368Z,10.30
2024-02-16T18:44:49.960Z,15.93
2024-02-16T18:52:10.727Z,19.05
2024-02-16T18:59:29.380Z,18.88
2024-02-16T19:06:47.951Z,20.75
2024-02-16T19:14:07.783Z,13.50
2024-02-16T19:21:26.091Z,18.38
2024-02-16T19:28:44.380Z,16.23
2024-02-16T19:36:04.861Z,14.10
2024-02-16T19:43:25.438Z,13.48
2024-02-16T19:50:44.870Z,14.93
2024-02-16T19:58:04.621Z,14.02
2024-02-16T20:05:25.199Z,14.32
2024-02-16T20:12:43.680Z,14.13
2024-02-16T20:20:06.379Z,17.50
2024-02-16T20:27:25.809Z,15.68
2024-02-16T20:34:44.295Z,18.38
2024-02-16T20:42:04.593Z,15.10
2024-02-16T20:49:23.521Z,15.82
2024-02-16T20:56:41.882Z,12.90
2024-02-16T21:04:02.049Z,15.43
2024-02-16T21:11:20.652Z,13.00
2024-02-16T21:18:39.086Z,16.23
2024-02-16T21:25:58.920Z,13.23
2024-02-16T21:33:17.977Z,15.27
2024-02-16T21:40:37.043Z,15.32
2024-02-16T21:47:57.055Z,12.65
2024-02-16T21:55:23.437Z,14.70
2024-02-16T22:02:46.121Z,15.68
2024-02-16T22:10:11.065Z,11.13
2024-02-16T22:17:33.705Z,28.00
2024-02-16T22:24:53.406Z,16.40
2024-02-16T22:32:20.238Z,13.27
2024-02-16T22:39:46.836Z,13.65
2024-02-16T22:47:14.743Z,19.35
2024-02-16T22:54:35.826Z,17.10
2024-02-16T23:02:00.891Z,18.05
2024-02-16T23:09:37.384Z,15.45
2024-02-16T23:16:58.699Z,17.45
2024-02-16T23:24:18.194Z,15.75
2024-02-16T23:31:42.344Z,18.27
2024-02-16T23:39:06.815Z,14.30
2024-02-16T23:46:26.985Z,15.10
2024-02-16T23:53:46.421Z,16.75
